Time;durP1;ratioP1;P1;durP2;ratioP2;P2;SDS_P1;SDS_P2;PMS_P1;PMS_P2;Temp;Humidity;BMP_temperature;BMP_pressure;BME280_temperature;BME280_humidity;BME280_pressure;Samples;Min_cycle;Max_cycle;Signal;HPM_P1;HPM_P2
2021/09/27 00:01:12;;;;;;;;;31.75;28.00;;;;;20.89;58.17;99094.28;6080172;28;97622;-62
2021/09/27 00:04:16;;;;;;;;;32.20;29.00;;;;;20.81;58.34;99090.22;6081000;28;97626;-62
2021/09/27 00:07:20;;;;;;;;;31.80;27.40;;;;;20.65;59.15;99092.25;6068042;28;96554;-60
2021/09/27 00:10:29;;;;;;;;;35.00;30.00;;;;;20.69;59.00;99093.31;6081615;28;98205;-60
2021/09/27 00:13:37;;;;;;;;;35.50;29.50;;;;;20.59;59.30;99095.28;6082708;28;97793;-60
2021/09/27 00:16:41;;;;;;;;;37.00;30.60;;;;;20.72;58.83;99098.22;6065487;28;97373;-61
2021/09/27 00:19:44;;;;;;;;;36.00;31.00;;;;;20.77;58.97;99088.34;6086180;28;97981;-63
2021/09/27 00:22:50;;;;;;;;;32.00;29.00;;;;;20.79;59.03;99091.59;6073335;28;98446;-63
2021/09/27 00:25:54;;;;;;;;;32.40;30.00;;;;;20.79;58.83;99089.69;6071620;28;96812;-61
2021/09/27 00:28:59;;;;;;;;;36.00;30.00;;;;;20.78;58.62;99085.31;6091826;28;96892;-61
2021/09/27 00:32:02;;;;;;;;;33.50;30.00;;;;;20.78;58.87;99088.03;6091187;28;97086;-62
2021/09/27 00:35:08;;;;;;;;;40.00;32.60;;;;;20.80;58.50;99088.59;6073465;28;97899;-63
2021/09/27 00:38:12;;;;;;;;;40.00;32.00;;;;;20.85;58.85;99094.03;6092784;28;97554;-62
2021/09/27 00:41:18;;;;;;;;;38.25;31.00;;;;;20.75;58.59;99080.41;6090450;28;96670;-62
2021/09/27 00:44:22;;;;;;;;;39.25;32.00;;;;;20.87;58.62;99096.47;6072729;28;96775;-62
2021/09/27 00:47:26;;;;;;;;;36.20;32.00;;;;;20.88;58.60;99093.47;6091876;28;96706;-59
2021/09/27 00:50:32;;;;;;;;;37.40;32.20;;;;;20.89;58.63;99097.03;6091749;28;97036;-62
2021/09/27 00:53:41;;;;;;;;;41.40;32.40;;;;;20.89;58.34;99095.09;6081781;28;97424;-61
2021/09/27 00:56:48;;;;;;;;;40.00;31.80;;;;;20.90;58.68;99085.78;6091104;28;96759;-60
2021/09/27 00:59:57;;;;;;;;;35.00;30.00;;;;;20.81;58.62;99094.91;6091433;28;97483;-63
2021/09/27 01:03:01;;;;;;;;;34.80;30.40;;;;;20.81;58.49;99098.47;6091303;28;97029;-63
2021/09/27 01:06:30;;;;;;;;;36.60;31.40;;;;;20.77;58.94;99089.97;6091204;28;98027;-62
2021/09/27 01:09:50;;;;;;;;;37.60;31.00;;;;;20.79;58.91;99092.44;6088957;28;97423;-62
2021/09/27 01:13:19;;;;;;;;;38.00;32.00;;;;;20.79;58.85;99089.69;6082406;28;96586;-61
2021/09/27 01:16:34;;;;;;;;;34.80;30.00;;;;;20.80;58.89;99091.34;6090798;28;97044;-61
2021/09/27 01:20:07;;;;;;;;;40.00;32.00;;;;;20.94;58.84;99088.78;6077453;28;97441;-59
2021/09/27 01:23:32;;;;;;;;;40.00;33.00;;;;;20.94;58.67;99091.50;6058059;28;97093;-60
2021/09/27 01:27:09;;;;;;;;;40.00;32.20;;;;;20.98;58.38;99081.63;6090999;28;97443;-62
2021/09/27 01:30:39;;;;;;;;;42.25;33.00;;;;;21.00;58.69;99079.41;6091483;28;96790;-61
2021/09/27 01:33:49;;;;;;;;;38.00;32.00;;;;;21.04;58.65;99091.44;6089997;28;97532;-62
2021/09/27 01:37:02;;;;;;;;;39.20;32.60;;;;;21.06;58.16;99084.56;6073469;28;96482;-62
2021/09/27 01:40:16;;;;;;;;;36.67;31.67;;;;;21.03;58.23;99079.66;6065048;28;97879;-62
2021/09/27 01:43:22;;;;;;;;;29.60;28.00;;;;;;;;6060622;28;96764;-61
2021/09/27 01:46:34;;;;;;;;;35.40;30.00;;;;;21.00;58.31;99082.16;6091137;28;97003;-62
2021/09/27 01:49:46;;;;;;;;;40.00;32.00;;;;;20.99;58.34;99070.38;6090687;28;97547;-60
2021/09/27 01:52:57;;;;;;;;;37.00;31.00;;;;;20.99;58.07;99070.38;6091266;28;96569;-63
2021/09/27 01:56:05;;;;;;;;;39.50;32.00;;;;;21.02;57.96;99064.31;6088993;28;96595;-61
2021/09/27 01:59:16;;;;;;;;;37.00;30.00;;;;;21.02;57.74;99058.81;6088767;28;96492;-63
2021/09/27 02:02:30;;;;;;;;;36.00;31.67;;;;;21.05;58.25;99055.53;6089095;28;96764;-62
2021/09/27 02:05:42;;;;;;;;;34.00;30.00;;;;;21.07;57.98;99064.28;6089027;28;97555;-62
2021/09/27 02:08:54;;;;;;;;;38.60;31.20;;;;;21.02;57.88;99058.81;6072282;28;96667;-61
2021/09/27 02:12:03;;;;;;;;;30.60;28.00;;;;;20.99;57.95;99061.34;6089471;28;97118;-63
2021/09/27 02:15:12;;;;;;;;;32.40;29.40;;;;;20.86;58.01;99068.28;6089834;28;98215;-60
2021/09/27 02:18:23;;;;;;;;;30.80;26.40;;;;;20.88;57.74;99070.72;6089832;28;96581;-61
2021/09/27 02:21:36;;;;;;;;;30.40;26.40;;;;;20.87;57.89;99064.41;6090286;28;96754;-61
2021/09/27 02:24:46;;;;;;;;;36.50;30.50;;;;;20.88;58.31;99059.75;6090153;28;96514;-61
2021/09/27 02:27:52;;;;;;;;;34.80;29.00;;;;;20.87;57.91;99061.66;6090105;28;97520;-61
2021/09/27 02:31:05;;;;;;;;;31.00;28.00;;;;;20.72;58.32;99068.06;6072988;28;97509;-62
2021/09/27 02:34:14;;;;;;;;;34.00;30.20;;;;;20.69;58.21;99060.44;6088298;28;97224;-62
2021/09/27 02:37:26;;;;;;;;;36.00;30.00;;;;;20.73;58.79;99063.41;6077951;28;97966;-62
2021/09/27 02:40:37;;;;;;;;;37.40;30.00;;;;;20.73;58.39;99060.66;6095145;28;97661;-60
2021/09/27 02:43:40;;;;;;;;;37.20;32.40;;;;;20.81;58.57;99060.09;6092361;28;96537;-62
2021/09/27 02:46:52;;;;;;;;;37.00;31.00;;;;;20.80;58.13;99061.19;6112317;28;97565;-62
2021/09/27 02:49:58;;;;;;;;;36.60;32.00;;;;;20.68;58.53;99064.25;6098734;28;96491;-60
2021/09/27 02:53:03;;;;;;;;;38.40;30.00;;;;;20.77;58.46;99066.44;6094624;28;97706;-62
2021/09/27 02:56:22;;;;;;;;;36.40;31.00;;;;;20.72;58.64;99062.59;6098335;28;97480;-60
2021/09/27 02:59:40;;;;;;;;;37.80;30.80;;;;;20.72;58.37;99062.59;6094256;28;97572;-59
2021/09/27 03:02:56;;;;;;;;;37.40;32.00;;;;;20.75;58.35;99063.97;6099591;28;96542;-59
2021/09/27 03:06:10;;;;;;;;;35.00;30.00;;;;;20.79;58.29;99055.97;6094786;28;96807;-62
2021/09/27 03:09:26;;;;;;;;;36.40;30.00;;;;;20.77;58.42;99055.47;6114619;28;97086;-61
2021/09/27 03:12:39;;;;;;;;;35.00;30.00;;;;;20.74;58.00;99065.06;6090353;28;97490;-60
2021/09/27 03:16:01;;;;;;;;;34.00;29.80;;;;;20.73;58.12;99063.41;6093284;28;97454;-61
2021/09/27 03:19:16;;;;;;;;;33.00;30.00;;;;;20.68;58.33;99061.53;6074425;28;97795;-62
2021/09/27 03:22:33;;;;;;;;;31.60;30.00;;;;;20.61;58.25;99063.78;6093502;28;96597;-59
2021/09/27 03:25:52;;;;;;;;;33.00;29.00;;;;;20.62;58.48;99065.38;6095353;28;96528;-60
2021/09/27 03:29:07;;;;;;;;;34.40;30.40;;;;;20.65;58.44;99064.03;6093922;28;97998;-63
2021/09/27 03:32:24;;;;;;;;;37.50;30.00;;;;;20.51;58.48;99050.13;6092261;28;96816;-60
2021/09/27 03:35:38;;;;;;;;;33.40;28.20;;;;;20.60;58.29;99058.56;6092728;28;96715;-60
2021/09/27 03:38:49;;;;;;;;;37.00;30.00;;;;;20.43;58.31;99042.50;6092648;28;96939;-62
2021/09/27 04:41:38;;;;;;;;;31.00;27.00;;;;;20.03;59.48;99039.94;6084567;28;96904;-62
2021/09/27 04:45:02;;;;;;;;;28.60;25.40;;;;;19.96;59.85;99045.69;6101899;28;97058;-62
2021/09/27 04:48:18;;;;;;;;;29.33;25.00;;;;;20.05;59.79;99040.44;6092996;28;97483;-60
2021/09/27 04:51:44;;;;;;;;;30.00;26.00;;;;;20.15;59.34;99052.19;6093777;28;97629;-62
2021/09/27 04:55:05;;;;;;;;;27.75;25.00;;;;;20.14;59.49;99060.66;6090461;28;97016;-59
2021/09/27 05:32:57;;;;;;;;;24.40;22.40;;;;;20.11;58.71;99056.59;6089141;28;97016;-62
2021/09/27 05:36:33;;;;;;;;;25.00;24.00;;;;;20.14;59.28;99056.00;6085324;28;96859;-63
2021/09/27 05:39:55;;;;;;;;;24.00;23.00;;;;;20.16;58.92;99061.22;6087868;28;96925;-64
2021/09/27 05:43:30;;;;;;;;;28.00;23.60;;;;;20.20;59.29;99063.13;6091430;28;97524;-62
2021/09/27 05:47:03;;;;;;;;;26.40;23.40;;;;;20.27;59.00;99062.81;6088229;28;97574;-62
2021/09/27 05:50:14;;;;;;;;;31.00;26.00;;;;;20.36;59.09;99071.28;6089112;28;96848;-62
2021/09/27 05:53:25;;;;;;;;;32.40;26.40;;;;;20.36;58.41;99069.38;6089413;28;97546;-60
2021/09/27 05:56:36;;;;;;;;;29.00;25.00;;;;;20.40;58.91;99070.44;6090606;28;96826;-63
2021/09/27 05:59:49;;;;;;;;;28.20;25.00;;;;;20.46;58.51;99061.13;6071400;28;96732;-62
2021/09/27 06:03:07;;;;;;;;;28.00;24.20;;;;;20.50;58.72;99064.94;6086009;28;96870;-62
2021/09/27 06:06:26;;;;;;;;;26.00;24.00;;;;;20.53;58.26;99080.78;6093553;28;97441;-64
2021/09/27 06:09:40;;;;;;;;;27.40;23.40;;;;;20.53;58.64;99072.56;6089223;28;97729;-59
2021/09/27 06:12:54;;;;;;;;;27.60;24.80;;;;;20.57;58.36;99081.88;6085314;28;99077;-61
2021/09/27 06:16:00;;;;;;;;;28.40;25.40;;;;;20.58;57.96;99080.75;6084992;28;98148;-59
2021/09/27 06:19:07;;;;;;;;;26.00;23.40;;;;;20.66;58.01;99085.66;6099585;28;97065;-62
2021/09/27 06:22:37;;;;;;;;;25.00;24.00;;;;;20.65;58.26;99081.28;6099342;28;96687;-61
2021/09/27 06:25:48;;;;;;;;;25.40;23.20;;;;;20.65;58.13;99077.72;6086037;28;96754;-60
2021/09/27 06:29:00;;;;;;;;;27.00;23.00;;;;;20.66;58.17;99082.94;6088131;28;97160;-59
2021/09/27 06:32:10;;;;;;;;;24.80;22.20;;;;;20.65;57.40;99078.53;6070087;28;97493;-61
2021/09/27 06:35:16;;;;;;;;;26.40;22.40;;;;;20.51;57.48;99066.56;6066212;28;97196;-61
2021/09/27 06:38:29;;;;;;;;;26.60;24.60;;;;;20.56;57.72;99076.69;6087219;28;96750;-63
2021/09/27 06:41:37;;;;;;;;;27.80;23.00;;;;;20.37;58.05;99076.50;6082888;28;97143;-60
2021/09/27 06:44:44;;;;;;;;;27.00;23.00;;;;;20.36;57.93;99074.03;6094348;28;98340;-61
2021/09/27 06:47:48;;;;;;;;;22.00;20.00;;;;;20.48;58.33;99075.34;6086068;28;97565;-61
2021/09/27 06:50:52;;;;;;;;;27.00;22.00;;;;;20.52;58.45;99081.09;6074149;28;98238;-59
2021/09/27 06:53:56;;;;;;;;;25.00;22.00;;;;;20.57;57.84;99087.38;6096197;28;97462;-61
2021/09/27 06:57:00;;;;;;;;;23.00;21.00;;;;;20.61;57.89;99082.13;6077970;28;98515;-60
2021/09/27 07:00:05;;;;;;;;;23.20;22.00;;;;;20.63;57.42;99085.38;6092245;28;96626;-62
2021/09/27 07:03:08;;;;;;;;;24.60;22.00;;;;;20.68;57.22;99077.97;6093008;28;97519;-61
2021/09/27 07:06:13;;;;;;;;;22.80;21.80;;;;;20.71;57.67;99073.84;6090495;28;96992;-62
2021/09/27 07:09:18;;;;;;;;;23.80;20.80;;;;;20.80;57.28;99074.06;6099307;28;97425;-59
2021/09/27 07:12:21;;;;;;;;;23.00;22.00;;;;;20.84;56.72;99075.13;6096814;28;97201;-61
2021/09/27 07:15:25;;;;;;;;;26.20;23.00;;;;;20.89;56.72;99075.94;6093014;28;97526;-62
2021/09/27 07:18:28;;;;;;;;;23.00;22.00;;;;;20.92;56.77;99071.78;6095832;28;96673;-63
2021/09/27 07:21:32;;;;;;;;;26.00;24.60;;;;;20.97;57.18;99074.50;6070328;28;98268;-63
2021/09/27 07:24:37;;;;;;;;;25.60;24.40;;;;;21.04;57.06;99077.75;6090471;28;97124;-61
2021/09/27 07:27:40;;;;;;;;;23.00;21.60;;;;;21.12;56.96;99066.97;6089383;28;96723;-59
2021/09/27 07:30:43;;;;;;;;;25.20;22.80;;;;;21.21;57.02;99067.22;6070237;28;97345;-60
2021/09/27 07:33:47;;;;;;;;;22.00;20.20;;;;;21.14;56.30;99072.22;6087291;28;97453;-59
2021/09/27 07:36:50;;;;;;;;;26.00;22.00;;;;;21.17;56.76;99068.88;6087290;28;97843;-62
2021/09/27 07:39:54;;;;;;;;;26.80;22.80;;;;;21.16;56.66;99070.81;6087707;28;97157;-61
2021/09/27 07:43:03;;;;;;;;;22.00;19.00;;;;;21.09;56.51;99067.56;6088673;28;97176;-58
2021/09/27 07:46:06;;;;;;;;;25.60;23.00;;;;;21.06;56.46;99081.03;6089013;28;97512;-64
2021/09/27 07:49:11;;;;;;;;;27.00;23.00;;;;;20.77;56.55;99067.22;6087946;28;97618;-59
2021/09/27 07:52:14;;;;;;;;;26.50;22.50;;;;;20.85;57.21;99069.38;6089674;28;96547;-61
2021/09/27 07:55:19;;;;;;;;;25.60;23.60;;;;;20.81;57.04;99070.22;6091905;28;96678;-59
2021/09/27 07:58:24;;;;;;;;;28.00;24.00;;;;;20.79;57.05;99073.25;6092771;28;96376;-59
2021/09/27 08:01:28;;;;;;;;;24.00;22.40;;;;;20.70;57.06;99067.56;6091795;28;97500;-60
2021/09/27 08:04:34;;;;;;;;;31.00;24.00;;;;;20.70;57.39;99066.72;6091558;28;97527;-63
2021/09/27 08:07:37;;;;;;;;;33.20;28.00;;;;;20.67;58.21;99059.88;6092159;28;97165;-63
2021/09/27 08:10:42;;;;;;;;;27.80;23.00;;;;;20.71;58.17;99066.47;6091609;28;97508;-63
2021/09/27 08:13:45;;;;;;;;;31.75;27.00;;;;;20.66;58.11;99073.88;6092352;28;97569;-62
2021/09/27 08:16:49;;;;;;;;;32.00;26.75;;;;;20.79;58.48;99065.03;6074322;28;98740;-62
2021/09/27 08:19:52;;;;;;;;;31.60;27.00;;;;;20.74;58.67;99067.78;6092738;28;97497;-62
2021/09/27 08:22:56;;;;;;;;;30.40;26.00;;;;;20.82;57.83;99071.88;6091491;28;97108;-62
2021/09/27 08:26:00;;;;;;;;;28.20;24.20;;;;;20.84;57.66;99072.41;6091584;28;97095;-61
2021/09/27 08:29:04;;;;;;;;;28.00;26.00;;;;;20.86;57.63;99071.03;6091530;28;96451;-62
2021/09/27 08:32:07;;;;;;;;;25.80;23.20;;;;;20.70;57.21;99069.47;6091706;28;97525;-59
2021/09/27 08:35:12;;;;;;;;;28.60;25.20;;;;;20.52;57.75;99061.91;6074500;28;97321;-61
2021/09/27 08:38:16;;;;;;;;;31.80;27.80;;;;;20.59;58.23;99062.41;6091273;28;96454;-61
2021/09/27 08:41:27;;;;;;;;;30.00;26.00;;;;;20.79;58.02;99075.16;6090750;28;96651;-59
2021/09/27 08:44:41;;;;;;;;;31.00;26.00;;;;;20.86;57.50;99073.75;6090422;28;97650;-60
2021/09/27 08:47:57;;;;;;;;;30.50;26.50;;;;;21.02;57.44;99067.06;6091834;28;97012;-62
2021/09/27 08:51:01;;;;;;;;;32.00;27.50;;;;;21.13;57.12;99074.13;6091718;28;96982;-61
2021/09/27 08:54:11;;;;;;;;;29.80;28.00;;;;;21.01;56.45;99065.41;6073839;28;96425;-60
2021/09/27 08:57:30;;;;;;;;;27.00;23.00;;;;;20.93;56.61;99077.00;6091176;28;96471;-63
2021/09/27 09:00:39;;;;;;;;;26.60;21.60;;;;;20.57;57.12;99065.44;6073248;28;97172;-61
2021/09/27 09:03:52;;;;;;;;;24.00;22.00;;;;;20.72;57.24;99078.25;6090575;28;96514;-61
2021/09/27 09:07:01;;;;;;;;;26.00;23.00;;;;;20.74;57.08;99074.09;6091882;28;96748;-60
2021/09/27 09:10:08;;;;;;;;;23.60;20.60;;;;;20.86;57.06;99084.72;6090900;28;96470;-62
2021/09/27 09:13:17;;;;;;;;;22.40;19.20;;;;;20.97;56.63;99082.72;6072822;28;98475;-61
2021/09/27 09:16:24;;;;;;;;;24.75;21.50;;;;;21.08;56.84;99082.38;6090460;28;96698;-62
2021/09/27 09:19:31;;;;;;;;;24.50;21.00;;;;;21.18;56.38;99086.97;6091388;28;97500;-60
2021/09/27 09:22:38;;;;;;;;;24.25;21.00;;;;;21.20;56.03;99087.53;6090965;28;96705;-59
2021/09/27 09:25:41;;;;;;;;;23.40;21.00;;;;;21.32;56.29;99082.47;6090829;28;97560;-61
2021/09/27 09:28:50;;;;;;;;;26.80;22.20;;;;;21.33;55.92;99081.38;6089807;28;96630;-62
2021/09/27 09:31:57;;;;;;;;;22.40;20.00;;;;;21.50;55.71;99080.97;6089930;28;96626;-60
2021/09/27 09:35:17;;;;;;;;;25.20;21.80;;;;;21.63;55.28;99071.25;6090219;28;97109;-62
2021/09/27 09:38:23;;;;;;;;;23.00;21.75;;;;;21.64;55.29;99075.63;6073350;28;96791;-59
2021/09/27 09:41:44;;;;;;;;;21.20;19.80;;;;;21.77;55.23;99066.69;6090119;28;97150;-60
2021/09/27 09:44:51;;;;;;;;;26.50;22.50;;;;;21.83;54.93;99069.13;6089999;28;96966;-62
2021/09/27 09:48:11;;;;;;;;;23.00;21.00;;;;;21.85;54.85;99057.81;6072444;28;96856;-62
2021/09/27 09:51:25;;;;;;;;;21.00;19.80;;;;;22.09;55.05;99061.41;6090548;28;96994;-61
2021/09/27 09:54:38;;;;;;;;;26.60;23.40;;;;;22.44;54.24;99054.66;6089575;28;97489;-60
2021/09/27 09:57:44;;;;;;;;;24.60;23.00;;;;;22.84;53.48;99056.06;6072320;28;97813;-62
2021/09/27 10:00:59;;;;;;;;;22.75;21.00;;;;;23.12;52.72;99052.31;6090002;28;97435;-61
2021/09/27 10:04:06;;;;;;;;;24.80;22.80;;;;;23.44;51.61;99050.69;6090281;28;98283;-60
2021/09/27 10:07:12;;;;;;;;;25.80;22.80;;;;;23.79;51.18;99043.78;6090203;28;98113;-62
2021/09/27 10:10:35;;;;;;;;;28.00;22.60;;;;;24.16;50.55;99041.66;6090058;28;97102;-61
2021/09/27 10:13:43;;;;;;;;;28.00;23.60;;;;;24.43;50.11;99045.53;6090037;28;97660;-63
2021/09/27 10:16:50;;;;;;;;;25.25;23.25;;;;;24.62;48.81;99043.44;6089574;28;96520;-61
2021/09/27 10:19:58;;;;;;;;;24.60;23.60;;;;;24.85;48.77;99050.63;6083932;28;96595;-62
2021/09/27 10:23:05;;;;;;;;;25.00;22.00;;;;;25.20;48.35;99042.66;6072267;28;97232;-61
2021/09/27 10:26:29;;;;;;;;;22.00;19.60;;;;;25.58;47.48;99040.34;6089225;28;97580;-62
2021/09/27 10:29:35;;;;;;;;;26.00;22.00;;;;;25.99;46.85;99040.88;6088135;28;97262;-59
2021/09/27 10:32:44;;;;;;;;;22.00;22.00;;;;;26.60;45.86;99031.63;6085296;28;97384;-60
2021/09/27 10:35:54;;;;;;;;;23.00;20.60;;;;;26.83;44.76;99037.81;6089827;28;96619;-59
2021/09/27 10:38:59;;;;;;;;;22.60;20.60;;;;;27.07;44.43;99038.16;6089179;28;97429;-59
2021/09/27 10:42:07;;;;;;;;;25.00;23.00;;;;;27.23;43.28;99032.13;6089242;28;96610;-58
2021/09/27 10:45:14;;;;;;;;;21.00;20.00;;;;;27.44;42.84;99030.31;6089448;28;97245;-59
2021/09/27 10:48:21;;;;;;;;;21.60;20.00;;;;;27.91;42.52;99020.88;6089213;28;97334;-60
2021/09/27 10:51:32;;;;;;;;;23.80;21.80;;;;;28.62;41.08;99026.56;6085682;28;97564;-59
2021/09/27 10:54:42;;;;;;;;;20.40;19.40;;;;;28.73;40.72;99018.69;6087232;28;97654;-63
2021/09/27 10:57:52;;;;;;;;;21.00;19.00;;;;;29.01;40.35;99022.53;6087094;28;96664;-61
2021/09/27 11:00:56;;;;;;;;;22.80;20.00;;;;;29.80;38.64;99018.66;6087904;28;97324;-61
2021/09/27 11:04:02;;;;;;;;;20.40;19.00;;;;;30.46;38.27;99016.50;6087519;28;96770;-61
2021/09/27 11:07:20;;;;;;;;;22.60;19.00;;;;;31.18;36.87;99002.75;6070399;28;98759;-63
2021/09/27 11:10:30;;;;;;;;;17.40;16.40;;;;;31.53;35.58;99005.69;6085622;28;97499;-63
2021/09/27 11:13:40;;;;;;;;;19.40;18.20;;;;;31.63;35.49;99008.78;6087627;28;96778;-60
2021/09/27 11:16:47;;;;;;;;;20.40;18.40;;;;;31.67;34.70;99001.31;6085221;28;98375;-62
2021/09/27 11:20:15;;;;;;;;;19.00;17.60;;;;;31.88;34.88;99000.25;6086361;28;97471;-61
2021/09/27 11:23:28;;;;;;;;;18.00;16.50;;;;;32.40;35.16;99006.34;6086936;28;97527;-63
2021/09/27 11:26:36;;;;;;;;;16.00;15.60;;;;;32.95;33.35;99002.41;6087570;28;97499;-58
2021/09/27 11:29:51;;;;;;;;;19.00;19.00;;;;;33.58;32.97;98993.69;6091624;28;97491;-58
2021/09/27 11:32:56;;;;;;;;;20.50;18.00;;;;;34.09;31.52;98999.81;6089761;28;96711;-62
2021/09/27 11:36:05;;;;;;;;;18.40;16.60;;;;;34.40;31.06;98987.53;6091878;28;97516;-61
2021/09/27 11:39:34;;;;;;;;;18.00;15.00;;;;;34.82;31.36;98980.91;6091054;28;98060;-64
2021/09/27 11:42:52;;;;;;;;;20.00;18.60;;;;;35.16;30.18;98980.53;6091601;28;97915;-62
2021/09/27 11:46:14;;;;;;;;;16.00;16.00;;;;;35.28;30.09;98970.28;6090797;28;97518;-61
2021/09/27 11:49:36;;;;;;;;;18.60;18.00;;;;;35.44;29.61;98968.84;6089794;28;96874;-60
2021/09/27 11:52:53;;;;;;;;;15.00;15.00;;;;;35.27;29.81;98963.06;6073374;28;97172;-61
2021/09/27 11:56:02;;;;;;;;;15.20;14.20;;;;;35.14;29.65;98943.69;6088711;28;97438;-63
2021/09/27 11:59:10;;;;;;;;;16.00;15.60;;;;;35.33;30.07;98967.97;6091421;28;97413;-62
2021/09/27 12:02:26;;;;;;;;;17.50;16.00;;;;;35.40;29.96;98956.81;6088642;28;96712;-61
2021/09/27 12:05:44;;;;;;;;;14.20;14.20;;;;;35.26;29.16;98955.84;6091359;28;97096;-61
2021/09/27 12:08:56;;;;;;;;;14.00;14.00;;;;;34.92;29.46;98946.63;6090584;28;96492;-66
2021/09/27 12:12:01;;;;;;;;;13.60;13.00;;;;;34.46;30.00;98949.59;6089399;28;97610;-63
2021/09/27 12:15:07;;;;;;;;;12.00;12.00;;;;;34.30;30.22;98949.00;6090624;28;98993;-64
2021/09/27 12:18:35;;;;;;;;;12.00;11.00;;;;;34.20;30.15;98939.25;6088977;28;96863;-61
2021/09/27 12:21:41;;;;;;;;;11.80;11.80;;;;;33.39;30.15;98947.03;6090126;28;96572;-60
2021/09/27 12:24:46;;;;;;;;;13.00;12.00;;;;;33.29;31.25;98947.63;6083253;28;96618;-61
2021/09/27 12:27:56;;;;;;;;;12.00;11.80;;;;;32.77;31.06;98945.38;6084986;28;97529;-61
2021/09/27 12:31:02;;;;;;;;;13.00;12.25;;;;;31.97;31.62;98940.34;6074481;28;97602;-62
2021/09/27 12:34:14;;;;;;;;;11.60;11.60;;;;;31.63;32.41;98941.91;6091496;28;96881;-60
2021/09/27 12:37:20;;;;;;;;;12.00;11.00;;;;;31.46;33.43;98930.28;6090807;28;96458;-62
2021/09/27 12:40:30;;;;;;;;;12.00;11.00;;;;;31.75;33.69;98930.66;6073224;28;97274;-61
2021/09/27 12:43:34;;;;;;;;;11.00;11.00;;;;;31.72;32.33;98933.34;6090960;28;97194;-63
2021/09/27 12:46:39;;;;;;;;;12.00;11.00;;;;;31.84;32.41;98930.47;6081026;28;97337;-62
2021/09/27 12:49:47;;;;;;;;;11.60;11.00;;;;;31.41;33.02;98934.13;6090692;28;96653;-63
2021/09/27 12:52:54;;;;;;;;;12.00;11.00;;;;;31.42;33.26;98926.59;6089743;28;96721;-65
2021/09/27 12:55:59;;;;;;;;;13.00;13.00;;;;;31.39;33.65;98930.88;6090599;28;98174;-63
2021/09/27 12:59:06;;;;;;;;;12.00;11.00;;;;;31.49;33.28;98924.78;6090590;28;96730;-62
2021/09/27 13:02:14;;;;;;;;;10.20;9.20;;;;;31.65;32.94;98914.47;6090677;28;97462;-61
2021/09/27 13:05:20;;;;;;;;;12.00;11.00;;;;;31.78;32.73;98915.19;6090570;28;96620;-63
2021/09/27 13:08:26;;;;;;;;;11.00;10.00;;;;;31.85;32.25;98915.38;6091077;28;97601;-60
2021/09/27 13:11:34;;;;;;;;;12.20;11.00;;;;;31.73;32.89;98926.59;6090692;28;97453;-61
2021/09/27 13:14:42;;;;;;;;;10.80;10.00;;;;;31.56;33.24;98919.44;6089509;28;96636;-61
2021/09/27 13:18:01;;;;;;;;;11.40;10.00;;;;;31.55;32.74;98914.19;6072671;28;98457;-60
2021/09/27 13:21:11;;;;;;;;;11.00;11.00;;;;;31.16;32.43;98913.16;6090958;28;96884;-61
2021/09/27 13:24:19;;;;;;;;;10.00;9.00;;;;;31.12;33.82;98909.47;6089648;28;98108;-62
2021/09/27 13:27:30;;;;;;;;;10.00;9.40;;;;;31.03;34.06;98903.28;6056426;28;100133;-60
2021/09/27 13:30:37;;;;;;;;;11.20;10.00;;;;;30.92;33.54;98911.28;6089673;28;97513;-64
2021/09/27 13:33:43;;;;;;;;;12.00;10.50;;;;;31.01;34.38;98909.16;6072603;28;96793;-60
2021/09/27 13:36:49;;;;;;;;;13.40;10.80;;;;;30.79;34.43;98896.59;6088024;28;97074;-63
2021/09/27 13:39:55;;;;;;;;;12.00;11.00;;;;;30.80;33.96;98901.00;6085685;28;96846;-60
2021/09/27 13:43:18;;;;;;;;;13.00;12.00;;;;;30.76;34.42;98894.53;6070472;28;98612;-64
2021/09/27 13:46:24;;;;;;;;;12.25;11.25;;;;;30.84;34.50;98896.34;6088996;28;97487;-60
2021/09/27 13:49:28;;;;;;;;;10.60;10.60;;;;;30.80;34.17;98880.72;6071061;28;97860;-61
2021/09/27 13:52:41;;;;;;;;;11.00;10.00;;;;;30.90;33.94;98883.81;6088771;28;98298;-63
2021/09/27 13:55:44;;;;;;;;;12.60;10.60;;;;;30.80;33.45;98878.75;6089952;28;97529;-60
2021/09/27 13:58:49;;;;;;;;;11.50;11.00;;;;;30.96;34.15;98878.78;6090052;28;96787;-60
2021/09/27 14:01:52;;;;;;;;;10.00;9.00;;;;;31.00;33.68;98876.91;6072979;28;97183;-63
2021/09/27 14:04:55;;;;;;;;;9.00;9.00;;;;;30.95;33.70;98877.97;6087731;28;97245;-61
2021/09/27 14:07:59;;;;;;;;;10.00;9.00;;;;;30.81;33.44;98874.81;6089336;28;97770;-60
2021/09/27 14:11:02;;;;;;;;;12.00;12.00;;;;;30.79;33.50;98881.91;6088807;28;97475;-63
2021/09/27 14:14:08;;;;;;;;;14.00;12.40;;;;;30.78;33.97;98883.88;6088781;28;97054;-63
2021/09/27 14:17:12;;;;;;;;;11.00;11.00;;;;;30.57;34.19;98891.63;6089720;28;97211;-61
2021/09/27 14:20:15;;;;;;;;;11.00;10.00;;;;;30.42;34.16;98881.19;6089041;28;97488;-59
2021/09/27 14:23:19;;;;;;;;;11.40;10.40;;;;;30.20;34.23;98865.06;6088415;28;96661;-61
2021/09/27 14:26:24;;;;;;;;;12.00;11.00;;;;;30.32;34.14;98882.50;6088268;28;97484;-60
2021/09/27 14:29:31;;;;;;;;;12.40;12.40;;;;;30.39;34.76;98885.50;6088671;28;97530;-63
2021/09/27 14:32:35;;;;;;;;;12.00;11.20;;;;;30.30;34.48;98884.81;6103072;28;96845;-62
2021/09/27 14:35:39;;;;;;;;;12.50;12.50;;;;;30.08;34.50;98891.72;6087236;28;96684;-59
2021/09/27 14:38:46;;;;;;;;;11.00;10.00;;;;;30.04;35.69;98893.59;6088169;28;96589;-61
2021/09/27 14:41:49;;;;;;;;;13.00;12.00;;;;;29.89;35.15;98893.47;6089342;28;96583;-63
2021/09/27 14:44:54;;;;;;;;;14.00;13.00;;;;;29.77;35.50;98893.44;6088715;28;96638;-62
2021/09/27 14:47:57;;;;;;;;;13.00;12.60;;;;;29.47;36.40;98874.22;6071751;28;99395;-63
2021/09/27 14:51:00;;;;;;;;;14.00;13.60;;;;;29.46;36.56;98889.28;6072161;28;96760;-62
2021/09/27 14:54:04;;;;;;;;;11.00;10.00;;;;;29.07;37.02;98893.47;6088146;28;96931;-62
2021/09/27 14:57:08;;;;;;;;;14.00;13.00;;;;;28.82;37.55;98891.78;6088942;28;96697;-63
2021/09/27 15:00:16;;;;;;;;;15.00;13.60;;;;;28.74;38.08;98898.22;6068542;28;97556;-62
2021/09/27 15:03:23;;;;;;;;;14.20;13.00;;;;;28.67;38.32;98895.16;6092268;28;96616;-63
2021/09/27 15:06:30;;;;;;;;;12.50;12.00;;;;;28.56;38.23;98899.50;6093338;28;97501;-65
2021/09/27 15:09:33;;;;;;;;;15.00;13.00;;;;;28.48;38.46;98903.97;6092069;28;97574;-64
2021/09/27 15:12:36;;;;;;;;;13.50;12.50;;;;;28.18;38.72;98902.41;6092048;28;98063;-65
2021/09/27 15:15:44;;;;;;;;;15.00;13.00;;;;;28.01;39.67;98892.22;6097058;28;97524;-61
2021/09/27 15:18:47;;;;;;;;;14.00;14.00;;;;;27.91;39.53;98892.59;6071654;28;97819;-62
2021/09/27 15:21:53;;;;;;;;;14.75;14.00;;;;;27.89;39.48;98892.16;6071618;28;97698;-64
2021/09/27 15:24:57;;;;;;;;;17.00;14.20;;;;;27.67;39.96;98893.25;6091744;28;97463;-64
2021/09/27 15:28:00;;;;;;;;;13.40;12.40;;;;;27.51;40.37;98897.75;6073491;28;100302;-62
2021/09/27 15:31:07;;;;;;;;;16.00;14.00;;;;;27.34;40.96;98893.03;6074922;28;97649;-61
2021/09/27 15:34:15;;;;;;;;;15.40;14.00;;;;;27.27;41.08;98901.03;6074104;28;97764;-65
2021/09/27 15:37:22;;;;;;;;;13.40;13.40;;;;;27.12;41.25;98898.84;6070024;28;97486;-63
2021/09/27 15:40:25;;;;;;;;;14.75;14.75;;;;;27.09;41.69;98896.69;6090248;28;97534;-63
2021/09/27 15:43:28;;;;;;;;;16.80;15.00;;;;;26.86;41.74;98895.28;6099101;28;98001;-61
2021/09/27 15:46:33;;;;;;;;;15.00;14.00;;;;;26.75;42.21;98903.09;6093951;28;96632;-63
2021/09/27 15:49:38;;;;;;;;;14.20;13.00;;;;;26.55;42.19;98885.22;6092993;28;97518;-63
2021/09/27 15:52:42;;;;;;;;;14.20;13.80;;;;;26.38;42.61;98901.00;6069650;28;97484;-63
2021/09/27 15:55:46;;;;;;;;;14.60;13.60;;;;;26.26;43.08;98894.16;6093348;28;97605;-63
2021/09/27 15:58:49;;;;;;;;;15.00;14.40;;;;;26.04;43.41;98904.53;6093790;28;97081;-64
2021/09/27 16:01:55;;;;;;;;;17.20;15.00;;;;;25.94;43.48;98913.13;6092989;28;97487;-64
2021/09/27 16:05:00;;;;;;;;;14.80;12.80;;;;;25.78;43.71;98902.53;6092636;28;97477;-62